createdAt,value
2019-04-26T00:01:13.879Z,2.13
2019-04-26T00:03:44.802Z,1.40
2019-04-26T00:06:15.022Z,1.37
2019-04-26T00:08:46.513Z,1.53
2019-04-26T00:11:34.980Z,1.87
2019-04-26T00:14:16.269Z,2.67
2019-04-26T00:16:47.352Z,1.67
2019-04-26T00:19:16.690Z,2.13
2019-04-26T00:21:47.223Z,1.63
2019-04-26T00:24:17.246Z,2.07
2019-04-26T00:26:46.715Z,1.80
2019-04-26T00:29:16.867Z,2.00
2019-04-26T00:31:46.246Z,2.03
2019-04-26T00:34:15.589Z,1.50
2019-04-26T00:36:44.935Z,1.77
2019-04-26T00:39:14.356Z,3.43
2019-04-26T00:41:44.204Z,2.07
2019-04-26T00:44:14.871Z,3.30
2019-04-26T00:46:47.921Z,2.27
2019-04-26T00:49:19.210Z,2.10
2019-04-26T00:51:50.019Z,1.23
2019-04-26T00:54:22.232Z,2.97
2019-04-26T00:56:52.375Z,2.27
2019-04-26T00:59:22.614Z,2.30
2019-04-26T01:01:56.157Z,2.10
2019-04-26T01:04:25.497Z,2.23
2019-04-26T01:06:56.494Z,1.67
2019-04-26T01:09:25.858Z,2.93
2019-04-26T01:11:55.193Z,2.03
2019-04-26T01:14:24.533Z,3.37
2019-04-26T01:16:53.879Z,1.93
2019-04-26T01:19:26.548Z,2.27
2019-04-26T01:22:00.659Z,1.80
2019-04-26T01:24:35.095Z,2.00
2019-04-26T01:27:07.408Z,2.53
2019-04-26T01:29:38.259Z,3.30
2019-04-26T01:32:12.487Z,2.37
2019-04-26T01:34:44.041Z,2.67
2019-04-26T01:37:13.822Z,2.80
2019-04-26T01:39:49.420Z,3.10
2019-04-26T01:42:20.994Z,3.30
2019-04-26T01:45:02.800Z,3.73
2019-04-26T01:47:32.742Z,2.10
2019-04-26T01:50:02.201Z,2.47
2019-04-26T01:52:31.956Z,2.67
2019-04-26T01:55:01.646Z,2.70
2019-04-26T01:57:32.692Z,4.27
2019-04-26T02:00:16.002Z,5.60
2019-04-26T02:02:49.981Z,3.20
2019-04-26T02:05:24.066Z,3.37
2019-04-26T02:07:53.893Z,2.67
2019-04-26T02:10:26.570Z,4.07
2019-04-26T02:12:57.982Z,3.40
2019-04-26T02:15:31.939Z,3.13
2019-04-26T02:18:02.502Z,3.77
2019-04-26T02:20:52.966Z,3.70
2019-04-26T02:23:34.317Z,2.57
2019-04-26T02:26:08.490Z,3.73
2019-04-26T02:28:37.841Z,2.60
2019-04-26T02:31:08.130Z,3.47
2019-04-26T02:33:37.532Z,4.50
2019-04-26T02:36:06.881Z,3.00
2019-04-26T02:38:36.730Z,3.23
2019-04-26T02:41:06.175Z,4.50
2019-04-26T02:43:38.020Z,3.90
2019-04-26T02:46:24.752Z,3.13
2019-04-26T02:49:05.930Z,2.70
2019-04-26T02:51:39.885Z,4.47
2019-04-26T02:54:27.847Z,4.10
2019-04-26T02:57:01.141Z,6.50
2019-04-26T02:59:38.737Z,3.73
2019-04-26T03:02:12.807Z,4.00
2019-04-26T03:04:45.795Z,3.60
2019-04-26T03:07:22.462Z,3.50
2019-04-26T03:09:53.619Z,3.53
2019-04-26T03:12:27.595Z,4.37
2019-04-26T03:15:13.201Z,3.97
2019-04-26T03:17:40.964Z,4.37
2019-04-26T03:20:19.441Z,4.90
2019-04-26T03:23:08.293Z,4.00
2019-04-26T03:25:54.352Z,3.93
2019-04-26T03:28:41.629Z,4.17
2019-04-26T03:31:15.643Z,3.30
2019-04-26T03:34:16.998Z,4.03
2019-04-26T03:37:32.534Z,4.10
2019-04-26T03:40:20.805Z,4.63
2019-04-26T03:43:25.981Z,5.60
2019-04-26T03:46:20.613Z,4.00
2019-04-26T03:49:06.421Z,5.80
2019-04-26T03:52:17.991Z,4.87
2019-04-26T03:54:51.939Z,4.87
2019-04-26T03:57:49.766Z,4.77
2019-04-26T04:00:25.945Z,6.87
2019-04-26T04:03:27.150Z,5.27
2019-04-26T04:06:01.144Z,5.20
2019-04-26T04:08:48.162Z,5.63
2019-04-26T04:11:22.379Z,5.20
2019-04-26T04:13:59.326Z,5.80
2019-04-26T04:16:42.815Z,5.37
2019-04-26T04:19:56.202Z,6.53
2019-04-26T04:22:30.174Z,6.43
2019-04-26T04:25:04.134Z,5.63
2019-04-26T04:27:47.891Z,5.97
2019-04-26T04:30:27.486Z,6.60
2019-04-26T04:33:21.985Z,6.93
2019-04-26T04:35:55.935Z,5.93
2019-04-26T04:38:50.588Z,5.53
2019-04-26T04:41:26.186Z,5.77
2019-04-26T04:44:18.369Z,6.90
2019-04-26T04:46:59.647Z,5.17
2019-04-26T04:50:05.299Z,6.97
2019-04-26T04:52:59.544Z,6.23
2019-04-26T04:56:02.553Z,5.37
2019-04-26T04:58:43.554Z,6.63
2019-04-26T05:01:37.703Z,6.20
2019-04-26T05:04:39.985Z,7.60
2019-04-26T05:07:26.942Z,6.27
2019-04-26T05:10:09.806Z,6.90
2019-04-26T05:12:52.301Z,6.47
2019-04-26T05:16:00.369Z,6.30
2019-04-26T05:18:39.967Z,6.63
2019-04-26T05:21:25.627Z,10.77
2019-04-26T05:24:15.437Z,8.30
2019-04-26T05:27:19.060Z,7.83
2019-04-26T05:30:05.897Z,6.23
2019-04-26T05:33:05.660Z,7.90
2019-04-26T05:36:01.997Z,8.17
2019-04-26T05:38:47.939Z,7.20
2019-04-26T05:41:41.170Z,7.00
2019-04-26T05:44:42.695Z,5.87
2019-04-26T05:47:42.368Z,6.43
2019-04-26T05:50:53.721Z,6.63
2019-04-26T05:54:14.601Z,7.63
2019-04-26T05:57:06.879Z,6.83
2019-04-26T06:00:05.269Z,7.87
2019-04-26T06:02:45.947Z,7.60
2019-04-26T06:05:32.733Z,8.13
2019-04-26T06:08:31.491Z,7.97
2019-04-26T06:11:09.023Z,8.23
2019-04-26T06:14:10.362Z,7.53
2019-04-26T06:17:05.205Z,6.37
2019-04-26T06:20:07.342Z,7.37
2019-04-26T06:22:57.516Z,6.63
2019-04-26T06:25:38.811Z,6.50
2019-04-26T06:28:35.379Z,7.17
2019-04-26T06:31:29.842Z,5.80
2019-04-26T06:34:09.787Z,6.63
2019-04-26T06:36:51.033Z,7.37
2019-04-26T06:39:32.416Z,6.60
2019-04-26T06:42:18.086Z,7.00
2019-04-26T06:44:54.902Z,5.97
2019-04-26T06:48:13.869Z,7.90
2019-04-26T06:51:24.613Z,6.03
2019-04-26T06:54:12.624Z,6.30
2019-04-26T06:57:20.289Z,6.50
2019-04-26T07:00:21.531Z,9.73
2019-04-26T07:03:25.844Z,7.20
2019-04-26T07:06:06.607Z,8.00
2019-04-26T07:08:58.100Z,5.13
2019-04-26T07:11:52.195Z,7.07
2019-04-26T07:14:56.172Z,6.50
2019-04-26T07:17:53.745Z,6.80
2019-04-26T07:20:26.769Z,5.93
2019-04-26T07:23:23.577Z,6.80
2019-04-26T07:26:34.692Z,7.80
2019-04-26T07:29:32.787Z,6.33
2019-04-26T07:32:43.116Z,7.07
2019-04-26T07:35:22.712Z,6.63
2019-04-26T07:38:53.797Z,7.73
2019-04-26T07:42:05.938Z,6.70
2019-04-26T07:45:13.526Z,6.70
2019-04-26T07:48:18.716Z,9.87
2019-04-26T07:51:24.205Z,5.70
2019-04-26T07:54:27.001Z,5.63
2019-04-26T07:57:42.725Z,6.13
2019-04-26T08:00:26.340Z,5.60
2019-04-26T08:03:13.505Z,5.57
2019-04-26T08:05:56.199Z,9.20
2019-04-26T08:08:30.153Z,6.87
2019-04-26T08:11:23.346Z,7.90
2019-04-26T08:14:15.154Z,6.87
2019-04-26T08:17:16.031Z,5.60
2019-04-26T08:20:12.909Z,7.27
2019-04-26T08:22:47.952Z,5.70
2019-04-26T08:25:20.603Z,6.23
2019-04-26T08:27:53.118Z,5.30
2019-04-26T08:30:25.081Z,6.00
2019-04-26T08:33:02.172Z,6.43
2019-04-26T08:35:38.234Z,7.07
2019-04-26T08:38:16.386Z,6.87
2019-04-26T08:40:43.750Z,7.70
2019-04-26T08:43:20.163Z,7.53
2019-04-26T08:46:14.140Z,5.83
2019-04-26T08:49:01.832Z,4.87
2019-04-26T08:51:36.058Z,6.40
2019-04-26T08:54:09.655Z,8.07
2019-04-26T08:56:49.606Z,7.27
2019-04-26T08:59:35.812Z,5.40
2019-04-26T09:02:26.108Z,5.30
2019-04-26T09:05:16.631Z,7.27
2019-04-26T09:07:53.369Z,7.87
2019-04-26T09:10:24.793Z,5.80
2019-04-26T09:12:58.210Z,5.70
2019-04-26T09:15:52.558Z,7.03
2019-04-26T09:18:21.894Z,6.37
2019-04-26T09:20:51.238Z,7.67
2019-04-26T09:23:39.538Z,5.67
2019-04-26T09:26:04.151Z,7.83
2019-04-26T09:28:40.557Z,8.33
2019-04-26T09:31:15.444Z,5.80
2019-04-26T09:33:47.003Z,6.17
2019-04-26T09:36:18.135Z,6.47
2019-04-26T09:38:47.573Z,7.10
2019-04-26T09:41:16.991Z,6.07
2019-04-26T09:43:47.984Z,7.60
2019-04-26T09:46:24.649Z,7.07
2019-04-26T09:49:10.971Z,6.13
2019-04-26T09:51:40.878Z,5.00
2019-04-26T09:54:10.213Z,6.03
2019-04-26T09:56:39.552Z,6.30
2019-04-26T09:59:08.897Z,8.00
2019-04-26T10:01:38.239Z,5.60
2019-04-26T10:04:07.575Z,5.47
2019-04-26T10:06:36.926Z,10.60
2019-04-26T10:09:11.549Z,10.20
2019-04-26T10:11:43.603Z,7.20
2019-04-26T10:14:15.242Z,7.73
2019-04-26T10:17:01.292Z,8.83
2019-04-26T10:19:38.519Z,8.53
2019-04-26T10:22:07.858Z,5.70
2019-04-26T10:24:37.274Z,8.17
2019-04-26T10:27:06.614Z,5.80
2019-04-26T10:29:35.946Z,6.27
2019-04-26T10:32:05.355Z,8.07
2019-04-26T10:34:34.699Z,5.50
2019-04-26T10:37:06.113Z,5.03
2019-04-26T10:39:36.920Z,5.87
2019-04-26T10:42:06.580Z,5.87
2019-04-26T10:44:40.029Z,6.30
2019-04-26T10:47:07.448Z,6.70
2019-04-26T10:49:48.366Z,7.03
2019-04-26T10:52:25.970Z,4.67
2019-04-26T10:55:16.020Z,4.83
2019-04-26T10:57:46.072Z,6.17
2019-04-26T11:00:34.699Z,4.55
2019-04-26T11:03:05.988Z,3.73
2019-04-26T11:05:35.340Z,4.30
2019-04-26T11:08:05.459Z,4.87
2019-04-26T11:10:47.892Z,3.53
2019-04-26T11:13:08.017Z,4.23
2019-04-26T11:15:37.380Z,4.83
2019-04-26T11:18:06.889Z,3.27
2019-04-26T11:20:36.533Z,3.80
2019-04-26T11:23:08.116Z,3.22
2019-04-26T11:25:37.018Z,2.95
2019-04-26T11:28:06.365Z,4.17
2019-04-26T11:30:36.037Z,5.28
2019-04-26T11:33:07.196Z,4.12
2019-04-26T11:35:36.602Z,4.67
2019-04-26T11:38:06.231Z,3.90
2019-04-26T11:40:35.624Z,6.42
2019-04-26T11:43:04.919Z,4.75
2019-04-26T11:45:34.266Z,4.35
2019-04-26T11:48:03.611Z,2.52
2019-04-26T11:50:32.944Z,3.65
2019-04-26T11:53:02.294Z,2.08
2019-04-26T11:55:31.707Z,3.17
2019-04-26T11:58:01.051Z,1.75
2019-04-26T12:00:38.075Z,3.15
2019-04-26T12:03:07.420Z,3.17
2019-04-26T12:05:50.347Z,5.15
2019-04-26T12:08:21.346Z,1.98
2019-04-26T12:10:50.689Z,4.55
2019-04-26T12:13:21.281Z,3.33
2019-04-26T12:15:51.246Z,3.37
2019-04-26T12:18:20.625Z,2.52
2019-04-26T12:20:50.030Z,3.70
2019-04-26T12:23:21.475Z,5.20
2019-04-26T12:25:50.449Z,4.53
2019-04-26T12:28:19.786Z,4.92
2019-04-26T12:30:49.137Z,3.12
2019-04-26T12:33:18.491Z,3.35
2019-04-26T12:35:47.831Z,3.10
2019-04-26T12:38:17.166Z,4.03
2019-04-26T12:40:47.596Z,4.60
2019-04-26T12:43:20.165Z,2.80
2019-04-26T12:45:52.754Z,4.62
2019-04-26T12:48:23.705Z,4.03
2019-04-26T12:50:53.063Z,3.47
2019-04-26T12:53:22.402Z,2.98
2019-04-26T12:55:53.255Z,3.47
2019-04-26T12:58:23.175Z,3.62
2019-04-26T13:00:54.379Z,4.42
2019-04-26T13:03:24.942Z,3.77
2019-04-26T13:05:58.192Z,5.87
2019-04-26T13:08:25.739Z,3.42
2019-04-26T13:11:14.918Z,4.00
2019-04-26T13:13:59.650Z,4.62
2019-04-26T13:16:36.114Z,3.33
2019-04-26T13:19:05.453Z,3.52
2019-04-26T13:21:37.397Z,4.65
2019-04-26T13:24:06.297Z,4.05
2019-04-26T13:26:36.450Z,4.37
2019-04-26T13:29:05.937Z,5.35
2019-04-26T13:31:35.277Z,2.65
2019-04-26T13:34:04.792Z,4.53
2019-04-26T13:36:34.138Z,4.55
2019-04-26T13:39:05.889Z,3.35
2019-04-26T13:41:38.690Z,4.03
2019-04-26T13:44:06.297Z,3.35
2019-04-26T13:46:43.027Z,3.62
2019-04-26T13:49:18.036Z,4.25
2019-04-26T13:51:46.627Z,7.67
2019-04-26T13:54:16.489Z,6.35
2019-04-26T13:56:47.041Z,4.25
2019-04-26T13:59:16.382Z,3.75
2019-04-26T14:01:45.800Z,3.77
2019-04-26T14:04:15.162Z,3.75
2019-04-26T14:06:44.484Z,3.62
2019-04-26T14:09:13.991Z,3.00
2019-04-26T14:11:43.513Z,3.60
2019-04-26T14:14:12.917Z,4.12
2019-04-26T14:16:42.958Z,3.17
2019-04-26T14:19:15.457Z,5.20
2019-04-26T14:21:43.813Z,5.83
2019-04-26T14:24:23.938Z,5.03
2019-04-26T14:26:53.593Z,4.47
2019-04-26T14:29:22.931Z,5.28
2019-04-26T14:31:53.127Z,4.62
2019-04-26T14:34:22.596Z,3.77
2019-04-26T14:37:05.521Z,3.60
2019-04-26T14:39:35.023Z,11.50
2019-04-26T14:41:57.015Z,4.15
2019-04-26T14:44:27.348Z,4.47
2019-04-26T14:46:57.858Z,4.25
2019-04-26T14:49:38.472Z,4.62
2019-04-26T14:51:58.497Z,2.10
2019-04-26T14:54:27.835Z,2.40
2019-04-26T14:56:59.745Z,2.98
2019-04-26T14:59:46.907Z,2.87
2019-04-26T15:02:33.918Z,3.27
2019-04-26T15:05:12.227Z,1.20
2019-04-26T15:07:50.212Z,2.33
2019-04-26T15:10:13.966Z,2.67
2019-04-26T15:12:46.957Z,2.92
2019-04-26T15:15:14.554Z,2.20
2019-04-26T15:17:43.897Z,1.75
2019-04-26T15:20:16.726Z,1.65
2019-04-26T15:22:48.741Z,3.72
2019-04-26T15:25:15.784Z,4.20
2019-04-26T15:27:45.125Z,2.72
2019-04-26T15:30:15.090Z,1.47
2019-04-26T15:32:44.434Z,2.45
2019-04-26T15:35:17.594Z,2.30
2019-04-26T15:37:44.855Z,3.58
2019-04-26T15:40:16.238Z,3.83
2019-04-26T15:43:01.184Z,2.67
2019-04-26T15:45:43.875Z,1.52
2019-04-26T15:48:32.232Z,2.25
2019-04-26T15:51:02.721Z,3.98
2019-04-26T15:53:33.203Z,2.85
2019-04-26T15:56:02.674Z,1.72
2019-04-26T15:58:32.041Z,2.50
2019-04-26T16:01:02.805Z,2.37
2019-04-26T16:03:32.793Z,3.62
2019-04-26T16:06:07.062Z,2.65
2019-04-26T16:08:41.160Z,5.40
2019-04-26T16:11:07.295Z,2.72
2019-04-26T16:13:35.381Z,2.70
2019-04-26T16:16:04.746Z,4.70
2019-04-26T16:18:34.101Z,3.65
2019-04-26T16:21:03.713Z,3.08
2019-04-26T16:23:41.274Z,3.80
2019-04-26T16:26:04.297Z,2.65
2019-04-26T16:28:38.282Z,2.65
2019-04-26T16:31:16.970Z,3.80
2019-04-26T16:33:48.007Z,4.42
2019-04-26T16:36:17.350Z,6.08
2019-04-26T16:38:48.482Z,3.17
2019-04-26T16:41:21.787Z,4.55
2019-04-26T16:43:53.126Z,5.60
2019-04-26T16:46:21.995Z,4.40
2019-04-26T16:48:56.744Z,6.58
2019-04-26T16:51:23.337Z,4.95
2019-04-26T16:54:06.281Z,3.62
2019-04-26T16:56:26.544Z,4.78
2019-04-26T16:58:55.151Z,6.15
2019-04-26T17:01:24.615Z,4.15
2019-04-26T17:03:53.954Z,6.28
2019-04-26T17:06:23.483Z,3.33
2019-04-26T17:09:00.846Z,4.58
2019-04-26T17:11:23.942Z,2.65
2019-04-26T17:13:56.888Z,4.85
2019-04-26T17:16:25.639Z,3.52
2019-04-26T17:18:55.678Z,1.77
2019-04-26T17:21:27.768Z,4.30
2019-04-26T17:24:00.801Z,5.03
2019-04-26T17:26:37.250Z,4.15
2019-04-26T17:29:06.588Z,3.72
2019-04-26T17:31:36.008Z,2.25
2019-04-26T17:34:05.719Z,4.80
2019-04-26T17:36:35.069Z,3.98
2019-04-26T17:39:12.527Z,4.95
2019-04-26T17:41:45.067Z,4.08
2019-04-26T17:44:11.232Z,5.08
2019-04-26T17:46:41.195Z,2.33
2019-04-26T17:49:11.140Z,4.35
2019-04-26T17:51:44.089Z,5.45
2019-04-26T17:54:26.593Z,3.50
2019-04-26T17:56:42.932Z,4.45
2019-04-26T17:59:30.278Z,5.90
2019-04-26T18:01:48.114Z,3.97
2019-04-26T18:04:14.888Z,5.12
2019-04-26T18:06:45.449Z,6.12
2019-04-26T18:09:38.338Z,4.03
2019-04-26T18:11:46.362Z,2.45
2019-04-26T18:14:21.438Z,2.12
2019-04-26T18:16:48.417Z,2.83
2019-04-26T18:19:19.398Z,4.93
2019-04-26T18:21:59.556Z,1.87
2019-04-26T18:24:27.617Z,2.80
2019-04-26T18:26:59.588Z,5.60
2019-04-26T18:29:30.352Z,3.13
2019-04-26T18:32:03.563Z,2.90
2019-04-26T18:34:37.109Z,2.03
2019-04-26T18:37:06.967Z,2.57
2019-04-26T18:39:34.066Z,1.97
2019-04-26T18:42:05.845Z,2.45
2019-04-26T18:44:38.581Z,5.20
2019-04-26T18:47:07.189Z,2.77
2019-04-26T18:49:36.530Z,2.10
2019-04-26T18:52:08.762Z,3.80
2019-04-26T18:54:38.575Z,3.70
2019-04-26T18:57:09.500Z,3.57
2019-04-26T18:59:38.988Z,3.97
2019-04-26T19:02:11.423Z,3.50
2019-04-26T19:04:41.788Z,4.33
2019-04-26T19:07:12.085Z,6.00
2019-04-26T19:09:56.720Z,2.20
2019-04-26T19:12:14.248Z,3.20
2019-04-26T19:15:03.169Z,3.27
2019-04-26T19:17:33.796Z,5.87
2019-04-26T19:20:25.073Z,5.90
2019-04-26T19:22:58.780Z,2.57
2019-04-26T19:25:29.826Z,5.90
2019-04-26T19:28:04.463Z,3.77
2019-04-26T19:30:30.677Z,3.87
2019-04-26T19:33:01.921Z,2.13
2019-04-26T19:35:32.840Z,3.97
2019-04-26T19:38:03.257Z,5.67
2019-04-26T19:40:32.613Z,5.37
2019-04-26T19:43:07.861Z,4.80
2019-04-26T19:45:39.526Z,4.67
2019-04-26T19:48:20.517Z,1.63
2019-04-26T19:50:52.729Z,5.10
2019-04-26T19:53:32.466Z,5.70
2019-04-26T19:56:12.387Z,3.50
2019-04-26T19:58:45.849Z,3.97
2019-04-26T20:01:16.504Z,4.47
2019-04-26T20:03:47.252Z,4.90
2019-04-26T20:06:18.979Z,4.40
2019-04-26T20:08:49.574Z,8.57
2019-04-26T20:11:19.982Z,5.33
2019-04-26T20:13:51.752Z,4.33
2019-04-26T20:16:22.627Z,5.73
2019-04-26T20:18:52.381Z,6.43
2019-04-26T20:21:21.892Z,4.70
2019-04-26T20:23:54.294Z,7.70
2019-04-26T20:26:22.655Z,6.77
2019-04-26T20:28:52.003Z,6.07
2019-04-26T20:31:25.899Z,7.23
2019-04-26T20:33:55.236Z,6.57
2019-04-26T20:36:24.575Z,5.73
2019-04-26T20:38:53.916Z,9.63
2019-04-26T20:41:23.619Z,4.83
2019-04-26T20:44:05.130Z,7.50
2019-04-26T20:46:25.131Z,6.47
2019-04-26T20:48:54.549Z,6.67
2019-04-26T20:51:24.259Z,6.17
2019-04-26T20:53:53.773Z,5.30
2019-04-26T20:56:23.120Z,7.37
2019-04-26T20:58:57.500Z,7.17
2019-04-26T21:01:26.926Z,2.37
2019-04-26T21:03:56.272Z,2.73
2019-04-26T21:06:29.377Z,2.37
2019-04-26T21:08:59.056Z,2.53
2019-04-26T21:11:30.312Z,3.77
2019-04-26T21:14:03.411Z,3.23
2019-04-26T21:16:30.045Z,1.83
2019-04-26T21:18:59.391Z,4.10
2019-04-26T21:21:28.728Z,2.77
2019-04-26T21:23:58.142Z,1.80
2019-04-26T21:26:29.130Z,7.13
2019-04-26T21:29:04.218Z,3.00
2019-04-26T21:31:45.490Z,5.17
2019-04-26T21:34:17.554Z,4.60
2019-04-26T21:37:04.192Z,2.70
2019-04-26T21:39:47.705Z,4.50
2019-04-26T21:42:20.567Z,3.67
2019-04-26T21:44:52.638Z,1.90
2019-04-26T21:47:19.241Z,2.00
2019-04-26T21:49:52.755Z,4.63
2019-04-26T21:52:21.430Z,4.27
2019-04-26T21:54:53.214Z,3.73
2019-04-26T21:57:26.407Z,3.77
2019-04-26T21:59:54.060Z,1.60
2019-04-26T22:02:25.458Z,3.27
2019-04-26T22:04:54.871Z,1.80
2019-04-26T22:07:24.290Z,4.13
2019-04-26T22:09:55.744Z,4.43
2019-04-26T22:12:27.256Z,3.93
2019-04-26T22:15:01.033Z,4.43
2019-04-26T22:17:34.813Z,2.73
2019-04-26T22:20:12.650Z,2.10
2019-04-26T22:22:42.406Z,2.80
2019-04-26T22:25:12.988Z,2.23
2019-04-26T22:27:45.221Z,3.20
2019-04-26T22:30:16.335Z,2.80
2019-04-26T22:32:48.516Z,1.37
2019-04-26T22:35:20.115Z,3.00
2019-04-26T22:37:48.202Z,1.53
2019-04-26T22:40:19.859Z,1.67
2019-04-26T22:42:50.347Z,2.70
2019-04-26T22:45:23.902Z,3.00
2019-04-26T22:47:54.886Z,3.30
2019-04-26T22:50:25.066Z,1.20
2019-04-26T22:52:54.896Z,1.87
2019-04-26T22:55:27.389Z,1.30
2019-04-26T22:57:55.345Z,2.37
2019-04-26T23:00:29.467Z,3.57
2019-04-26T23:02:58.103Z,2.07
2019-04-26T23:05:30.675Z,5.23
2019-04-26T23:08:01.045Z,2.57
2019-04-26T23:10:34.239Z,2.47
2019-04-26T23:13:10.341Z,3.37
2019-04-26T23:15:43.150Z,2.93
2019-04-26T23:18:15.859Z,2.80
2019-04-26T23:20:55.888Z,3.50
2019-04-26T23:23:25.231Z,2.93
2019-04-26T23:25:54.572Z,2.67
2019-04-26T23:28:27.714Z,5.60
2019-04-26T23:30:54.985Z,2.97
2019-04-26T23:33:24.490Z,3.43
2019-04-26T23:35:53.843Z,6.17
2019-04-26T23:38:23.527Z,4.33
2019-04-26T23:40:53.065Z,4.13
2019-04-26T23:43:25.422Z,2.57
2019-04-26T23:45:53.646Z,2.47
2019-04-26T23:48:22.987Z,3.40
2019-04-26T23:50:53.859Z,5.30
2019-04-26T23:53:24.111Z,3.00
2019-04-26T23:55:53.595Z,4.30
2019-04-26T23:58:23.107Z,3.43
